Time;durP1;ratioP1;P1;durP2;ratioP2;P2;SDS_P1;SDS_P2;PMS_P1;PMS_P2;Temp;Humidity;BMP_temperature;BMP_pressure;BME280_temperature;BME280_humidity;BME280_pressure;Samples;Min_cycle;Max_cycle;Signal;HPM_P1;HPM_P2
2020/12/25 00:00:58;;;;;;;;;;;;;;;5.60;100.00;100931.25;5046765;28;19946;-69
2020/12/25 00:03:36;;;;;;;;;;;;;;;5.59;100.00;100933.06;5060945;28;19944;-68
2020/12/25 00:06:03;;;;;;;;;;;;;;;5.60;100.00;100936.56;5067074;28;20031;-69
2020/12/25 00:08:30;;;;;;;;;;;;;;;5.60;100.00;100931.25;5078280;28;20441;-69
2020/12/25 00:10:57;;;;;;;;;;;;;;;5.61;100.00;100925.88;5059970;28;19933;-69
2020/12/25 00:13:24;;;;;;;;;;;;;;;5.60;100.00;100928.59;5076423;28;19947;-70
2020/12/25 00:15:51;;;;;;;;;;;;;;;5.58;100.00;100927.75;5080209;28;19982;-70
2020/12/25 00:18:18;;;;;;;;;;;;;;;5.58;100.00;100931.28;5073400;28;19924;-69
2020/12/25 00:20:48;;;;;;;;;;;;;;;5.56;100.00;100935.78;5071002;28;20389;-69
2020/12/25 00:23:16;;;;;;;;;;;;;;;5.57;100.00;100934.00;5080689;28;19928;-69
2020/12/25 00:25:43;;;;;;;;;;;;;;;5.57;100.00;100934.00;5081724;28;19946;-69
2020/12/25 00:28:10;;;;;;;;;;;;;;;5.57;100.00;100934.00;5079193;28;19925;-69
2020/12/25 00:30:41;;;;;;;;;;;;;;;5.54;100.00;100942.91;5072632;28;20212;-70
2020/12/25 00:33:08;;;;;;;;;;;;;;;5.53;100.00;100933.22;5074973;28;19929;-74
2020/12/25 00:35:35;;;;;;;;;;;;;;;5.52;100.00;100942.97;5059299;28;20020;-74
2020/12/25 00:38:02;;;;;;;;;;;;;;;5.52;100.00;100947.41;5058513;28;19928;-74
2020/12/25 00:40:30;;;;;;;;;;;;;;;5.48;100.00;100957.25;5080317;28;19925;-74
2020/12/25 00:42:57;;;;;;;;;;;;;;;5.47;100.00;100954.59;5071385;28;20181;-74
2020/12/25 00:45:24;;;;;;;;;;;;;;;5.46;100.00;100953.75;5075624;28;19983;-73
2020/12/25 00:47:50;;;;;;;;;;;;;;;5.44;100.00;100949.38;5073878;28;19924;-74
2020/12/25 00:50:17;;;;;;;;;;;;;;;5.43;100.00;100955.59;5078621;28;19930;-74
2020/12/25 00:52:44;;;;;;;;;;;;;;;5.40;100.00;100953.03;5076542;28;19928;-74
2020/12/25 00:55:12;;;;;;;;;;;;;;;5.38;100.00;100954.88;5069943;28;19928;-73
2020/12/25 00:57:40;;;;;;;;;;;;;;;5.37;100.00;100961.06;5071731;28;19931;-74
2020/12/25 01:00:15;;;;;;;;;;;;;;;5.37;100.00;100963.72;5086338;28;19956;-73
2020/12/25 01:02:42;;;;;;;;;;;;;;;5.34;100.00;100962.06;5066743;28;20063;-73
2020/12/25 01:05:09;;;;;;;;;;;;;;;5.35;100.00;100966.44;5086831;28;19939;-74
2020/12/25 01:07:36;;;;;;;;;;;;;;;5.36;100.00;100967.31;5073371;28;19924;-74
2020/12/25 01:10:03;;;;;;;;;;;;;;;5.35;100.00;100977.06;5070257;28;19924;-74
2020/12/25 01:12:30;;;;;;;;;;;;;;;5.38;100.00;100976.13;5085578;28;19928;-73
2020/12/25 01:14:57;;;;;;;;;;;;;;;5.39;100.00;100984.03;5061188;28;19939;-74
2020/12/25 01:17:27;;;;;;;;;;;;;;;5.41;100.00;100983.97;5071887;28;20102;-74
2020/12/25 01:19:53;;;;;;;;;;;;;;;5.42;100.00;100991.91;5070515;28;19929;-74
2020/12/25 01:22:21;;;;;;;;;;;;;;;5.43;100.00;100984.81;5068082;28;20023;-74
2020/12/25 01:24:48;;;;;;;;;;;;;;;5.43;100.00;100991.00;5057487;28;19924;-74
2020/12/25 01:27:15;;;;;;;;;;;;;;;5.43;100.00;100990.13;5065748;28;19988;-74
2020/12/25 01:29:42;;;;;;;;;;;;;;;5.43;100.00;100992.78;5052471;28;20274;-74
2020/12/25 01:32:10;;;;;;;;;;;;;;;5.42;100.00;100996.38;5070675;28;19939;-73
2020/12/25 01:34:37;;;;;;;;;;;;;;;5.42;100.00;101010.50;5072527;28;20806;-73
2020/12/25 01:37:03;;;;;;;;;;;;;;;5.42;100.00;101009.66;5072268;28;19931;-72
2020/12/25 01:39:30;;;;;;;;;;;;;;;5.40;100.00;101006.13;5073488;28;19928;-73
2020/12/25 01:41:57;;;;;;;;;;;;;;;5.40;100.00;101006.13;5068784;28;19950;-74
2020/12/25 01:44:24;;;;;;;;;;;;;;;5.39;100.00;101015.91;5073323;28;19928;-74
2020/12/25 01:46:51;;;;;;;;;;;;;;;5.36;100.00;101012.44;5069835;28;20054;-74
2020/12/25 01:49:19;;;;;;;;;;;;;;;5.35;100.00;101008.91;5052689;28;19935;-74
2020/12/25 01:51:46;;;;;;;;;;;;;;;5.34;100.00;101016.91;5058720;28;19929;-74
2020/12/25 01:54:13;;;;;;;;;;;;;;;5.30;100.00;101011.69;5075649;28;19929;-74
2020/12/25 01:56:41;;;;;;;;;;;;;;;5.30;100.00;101019.66;5068394;28;19987;-74
2020/12/25 01:59:09;;;;;;;;;;;;;;;5.29;100.00;101022.34;5074792;28;19924;-74
2020/12/25 02:01:36;;;;;;;;;;;;;;;5.26;100.00;101025.06;5076292;28;19947;-74
2020/12/25 02:04:03;;;;;;;;;;;;;;;5.25;100.00;101018.88;5089743;28;20347;-74
2020/12/25 02:06:37;;;;;;;;;;;;;;;5.21;100.00;101025.19;5071517;28;19971;-74
2020/12/25 02:09:04;;;;;;;;;;;;;;;5.20;100.00;101028.75;5054695;28;19933;-73
2020/12/25 02:11:32;;;;;;;;;;;;;;;5.18;100.00;101038.53;5068303;28;20194;-73
2020/12/25 02:13:59;;;;;;;;;;;;;;;5.15;100.00;101033.28;5077453;28;19988;-73
2020/12/25 02:16:25;;;;;;;;;;;;;;;5.15;100.00;101029.78;5071473;28;19924;-74
2020/12/25 02:18:52;;;;;;;;;;;;;;;5.12;100.00;101028.09;5057249;28;19929;-74
2020/12/25 02:21:20;;;;;;;;;;;;;;;5.12;100.00;101044.00;5071386;28;19925;-69
2020/12/25 02:23:47;;;;;;;;;;;;;;;5.11;100.00;101036.06;5069804;28;19928;-69
2020/12/25 02:26:14;;;;;;;;;;;;;;;5.12;100.00;101041.34;5065723;28;20237;-68
2020/12/25 02:28:41;;;;;;;;;;;;;;;5.10;100.00;101048.47;5068483;28;19925;-69
2020/12/25 02:31:09;;;;;;;;;;;;;;;5.13;100.00;101060.81;5074213;28;20002;-68
2020/12/25 02:33:36;;;;;;;;;;;;;;;5.14;100.00;101052.78;5071776;28;19971;-69
2020/12/25 02:36:03;;;;;;;;;;;;;;;5.16;100.00;101063.41;5074719;28;19925;-69
2020/12/25 02:38:30;;;;;;;;;;;;;;;5.17;100.00;101063.34;5068514;28;20452;-68
2020/12/25 02:40:57;;;;;;;;;;;;;;;5.19;100.00;101072.16;5069930;28;20451;-69
2020/12/25 02:43:24;;;;;;;;;;;;;;;5.20;100.00;101067.72;5076927;28;19956;-68
2020/12/25 02:45:51;;;;;;;;;;;;;;;5.22;100.00;101082.69;5056421;28;19924;-68
2020/12/25 02:48:17;;;;;;;;;;;;;;;5.21;100.00;101080.94;5074074;28;19934;-68
2020/12/25 02:50:44;;;;;;;;;;;;;;;5.24;100.00;101086.19;5069160;28;19936;-68
2020/12/25 02:53:11;;;;;;;;;;;;;;;5.20;100.00;101089.81;5064297;28;19925;-68
2020/12/25 02:55:39;;;;;;;;;;;;;;;5.22;100.00;101089.78;5071987;28;19924;-68
2020/12/25 02:58:06;;;;;;;;;;;;;;;5.20;100.00;101089.81;5075452;28;19964;-68
2020/12/25 03:00:33;;;;;;;;;;;;;;;5.20;100.00;101088.94;5073993;28;19925;-69
2020/12/25 03:03:00;;;;;;;;;;;;;;;5.19;100.00;101096.06;5063452;28;19946;-68
2020/12/25 03:05:33;;;;;;;;;;;;;;;5.21;100.00;101102.19;5064875;28;19932;-69
2020/12/25 03:08:00;;;;;;;;;;;;;;;5.20;100.00;101100.44;5068918;28;19924;-69
2020/12/25 03:10:26;;;;;;;;;;;;;;;5.18;100.00;101101.38;5068123;28;19928;-68
2020/12/25 03:12:54;;;;;;;;;;;;;;;5.18;100.00;101096.06;5075859;28;19947;-68
2020/12/25 03:15:21;;;;;;;;;;;;;;;5.18;100.00;101099.59;5058280;28;19925;-68
2020/12/25 03:17:48;;;;;;;;;;;;;;;5.16;100.00;101104.06;5075080;28;19929;-69
2020/12/25 03:20:15;;;;;;;;;;;;;;;5.14;100.00;101108.53;5068126;28;21850;-68
2020/12/25 03:22:42;;;;;;;;;;;;;;;5.14;100.00;101107.66;5069357;28;19952;-68
2020/12/25 03:25:09;;;;;;;;;;;;;;;5.13;100.00;101104.16;5071466;28;19925;-69
2020/12/25 03:27:36;;;;;;;;;;;;;;;5.11;100.00;101103.28;5071898;28;19929;-69
2020/12/25 03:30:04;;;;;;;;;;;;;;;5.10;100.00;101104.22;5076070;28;19967;-68
2020/12/25 03:32:30;;;;;;;;;;;;;;;5.09;100.00;101106.91;5070149;28;19929;-69
2020/12/25 03:34:57;;;;;;;;;;;;;;;5.04;100.00;101101.69;5066612;28;19928;-69
2020/12/25 03:37:24;;;;;;;;;;;;;;;5.05;100.00;101100.81;5070488;28;19947;-68
2020/12/25 03:39:51;;;;;;;;;;;;;;;5.04;100.00;101104.34;5071577;28;19933;-70
2020/12/25 03:42:18;;;;;;;;;;;;;;;5.04;100.00;101105.22;5071090;28;19939;-69
2020/12/25 03:44:45;;;;;;;;;;;;;;;5.04;100.00;101109.66;5087788;28;19954;-68
2020/12/25 03:47:13;;;;;;;;;;;;;;;5.06;100.00;101113.16;5063863;28;19928;-68
2020/12/25 03:49:40;;;;;;;;;;;;;;;5.06;100.00;101107.84;5067363;28;19976;-68
2020/12/25 03:52:07;;;;;;;;;;;;;;;5.08;100.00;101103.34;5073942;28;20023;-68
2020/12/25 03:54:34;;;;;;;;;;;;;;;5.11;100.00;101097.97;5068465;28;19959;-68
2020/12/25 03:57:01;;;;;;;;;;;;;;;5.14;100.00;101105.88;5074432;28;20225;-68
2020/12/25 03:59:28;;;;;;;;;;;;;;;5.16;100.00;101100.56;5071082;28;20319;-68
2020/12/25 04:01:54;;;;;;;;;;;;;;;5.18;100.00;101107.56;5056520;28;19932;-68
2020/12/25 04:04:22;;;;;;;;;;;;;;;5.19;100.00;101108.41;5065336;28;19931;-68
2020/12/25 04:06:49;;;;;;;;;;;;;;;5.20;100.00;101119.03;5074433;28;19978;-68
2020/12/25 04:09:16;;;;;;;;;;;;;;;5.20;100.00;101116.38;5072888;28;19984;-68
2020/12/25 04:11:43;;;;;;;;;;;;;;;5.21;100.00;101118.09;5074144;28;19932;-68
2020/12/25 04:14:10;;;;;;;;;;;;;;;5.23;100.00;101115.44;5072502;28;20337;-69
2020/12/25 04:16:37;;;;;;;;;;;;;;;5.25;100.00;101119.78;5061400;28;19964;-68
2020/12/25 04:19:03;;;;;;;;;;;;;;;5.24;100.00;101123.34;5069195;28;19925;-68
2020/12/25 04:21:31;;;;;;;;;;;;;;;5.24;100.00;101128.66;5055433;28;19928;-69
2020/12/25 04:23:58;;;;;;;;;;;;;;;5.22;100.00;101133.13;5055851;28;20370;-68
2020/12/25 04:26:25;;;;;;;;;;;;;;;5.22;100.00;101126.94;5066455;28;19925;-68
2020/12/25 04:28:52;;;;;;;;;;;;;;;5.19;100.00;101125.25;5069845;28;20393;-68
2020/12/25 04:31:19;;;;;;;;;;;;;;;5.21;100.00;101128.72;5064339;28;19925;-68
2020/12/25 04:33:46;;;;;;;;;;;;;;;5.19;100.00;101130.56;5055701;28;19960;-68
2020/12/25 04:36:27;;;;;;;;;;;;;;;5.19;100.00;101125.25;5067463;28;20020;-69
2020/12/25 04:38:54;;;;;;;;;;;;;;;5.17;100.00;101132.38;5070562;28;19978;-69
2020/12/25 04:41:21;;;;;;;;;;;;;;;5.16;100.00;101135.94;5066022;28;19936;-69
2020/12/25 04:43:51;;;;;;;;;;;;;;;5.15;100.00;101144.78;5073567;28;19939;-69
2020/12/25 04:46:18;;;;;;;;;;;;;;;5.14;100.00;101134.22;5068419;28;19933;-69
2020/12/25 04:48:45;;;;;;;;;;;;;;;5.11;100.00;101136.94;5069843;28;19924;-69
2020/12/25 04:51:12;;;;;;;;;;;;;;;5.09;100.00;101134.31;5065660;28;19925;-70
2020/12/25 04:53:39;;;;;;;;;;;;;;;5.09;100.00;101134.31;5071840;28;19935;-69
2020/12/25 04:56:07;;;;;;;;;;;;;;;5.08;100.00;101137.88;5063996;28;19925;-69
2020/12/25 04:58:34;;;;;;;;;;;;;;;5.05;100.00;101141.47;5064888;28;19924;-69
2020/12/25 05:01:01;;;;;;;;;;;;;;;5.06;100.00;101145.00;5074614;28;19925;-69
2020/12/25 05:03:33;;;;;;;;;;;;;;;5.05;100.00;101149.44;5079473;28;19932;-70
2020/12/25 05:06:02;;;;;;;;;;;;;;;5.06;100.00;101134.38;5080462;28;19940;-69
2020/12/25 05:08:35;;;;;;;;;;;;;;;5.06;100.00;101134.38;5092372;28;19951;-69
2020/12/25 05:11:02;;;;;;;;;;;;;;;5.08;100.00;101143.16;5071488;28;20011;-70
2020/12/25 05:13:29;;;;;;;;;;;;;;;5.09;100.00;101134.31;5066124;28;19959;-69
2020/12/25 05:15:56;;;;;;;;;;;;;;;5.11;100.00;101129.84;5074317;28;19928;-69
2020/12/25 05:18:24;;;;;;;;;;;;;;;5.14;100.00;101140.38;5077149;28;19935;-70
2020/12/25 05:20:52;;;;;;;;;;;;;;;5.18;100.00;101139.41;5069882;28;19944;-70
2020/12/25 05:23:19;;;;;;;;;;;;;;;5.19;100.00;101149.16;5072806;28;19933;-70
2020/12/25 05:25:46;;;;;;;;;;;;;;;5.19;100.00;101141.19;5066311;28;19953;-69
2020/12/25 05:28:13;;;;;;;;;;;;;;;5.21;100.00;101147.31;5071379;28;19924;-70
2020/12/25 05:30:44;;;;;;;;;;;;;;;5.20;100.00;101148.22;5076829;28;19928;-69
2020/12/25 05:33:11;;;;;;;;;;;;;;;5.20;100.00;101150.88;5072941;28;20401;-70
2020/12/25 05:35:38;;;;;;;;;;;;;;;5.19;100.00;101159.75;5068604;28;19936;-69
2020/12/25 05:38:09;;;;;;;;;;;;;;;5.20;100.00;101158.84;5068329;28;20009;-70
2020/12/25 05:40:41;;;;;;;;;;;;;;;5.21;100.00;101165.91;5072199;28;19983;-69
2020/12/25 05:43:08;;;;;;;;;;;;;;;5.20;100.00;101164.16;5066953;28;20021;-69
2020/12/25 05:45:39;;;;;;;;;;;;;;;5.19;100.00;101159.75;5062264;28;19959;-69
2020/12/25 05:48:07;;;;;;;;;;;;;;;5.20;100.00;101166.81;5074451;28;19935;-69
2020/12/25 05:50:34;;;;;;;;;;;;;;;5.18;100.00;101160.66;5074365;28;19924;-69
2020/12/25 05:53:02;;;;;;;;;;;;;;;5.15;100.00;101170.47;5071699;28;20226;-69
2020/12/25 05:55:29;;;;;;;;;;;;;;;5.15;100.00;101171.31;5064494;28;20384;-70
2020/12/25 05:57:56;;;;;;;;;;;;;;;5.13;100.00;101173.16;5073117;28;19928;-69
2020/12/25 06:00:24;;;;;;;;;;;;;;;5.12;100.00;101175.81;5079051;28;19925;-69
2020/12/25 06:02:51;;;;;;;;;;;;;;;5.12;100.00;101175.81;5069940;28;20011;-69
2020/12/25 06:05:20;;;;;;;;;;;;;;;5.11;100.00;101174.97;5072664;28;19935;-69
2020/12/25 06:07:50;;;;;;;;;;;;;;;5.08;100.00;101180.34;5064192;28;20286;-69
2020/12/25 06:10:18;;;;;;;;;;;;;;;5.06;100.00;101179.50;5064968;28;19939;-69
2020/12/25 06:12:45;;;;;;;;;;;;;;;5.03;100.00;101183.09;5092668;28;19931;-69
2020/12/25 06:15:17;;;;;;;;;;;;;;;5.01;100.00;101181.38;5070241;28;19979;-69
2020/12/25 06:17:51;;;;;;;;;;;;;;;5.01;100.00;101194.63;5072069;28;20332;-69
2020/12/25 06:20:20;;;;;;;;;;;;;;;4.99;100.00;101200.00;5071550;28;19940;-70
2020/12/25 06:22:47;;;;;;;;;;;;;;;5.01;100.00;101189.34;5068938;28;19971;-70
2020/12/25 06:25:14;;;;;;;;;;;;;;;5.02;100.00;101191.97;5064653;28;19964;-70
2020/12/25 06:27:48;;;;;;;;;;;;;;;5.02;100.00;101191.97;5073147;28;19951;-70
2020/12/25 06:30:22;;;;;;;;;;;;;;;5.05;100.00;101202.53;5070633;28;19964;-70
2020/12/25 06:32:49;;;;;;;;;;;;;;;5.08;100.00;101206.88;5072858;28;19996;-70
2020/12/25 06:35:16;;;;;;;;;;;;;;;5.10;100.00;101215.69;5066749;28;19925;-70
2020/12/25 06:37:46;;;;;;;;;;;;;;;5.12;100.00;101215.66;5072517;28;19931;-70
2020/12/25 06:40:12;;;;;;;;;;;;;;;5.14;100.00;101212.06;5079734;28;19935;-70
2020/12/25 06:42:39;;;;;;;;;;;;;;;5.16;100.00;101207.59;5082235;28;19928;-70
2020/12/25 06:45:07;;;;;;;;;;;;;;;5.19;100.00;101212.84;5080079;28;20023;-70
2020/12/25 06:47:35;;;;;;;;;;;;;;;5.21;100.00;101216.34;5079091;28;19928;-70
2020/12/25 06:50:07;;;;;;;;;;;;;;;5.23;100.00;101218.97;5094957;28;20002;-70
2020/12/25 06:52:50;;;;;;;;;;;;;;;5.22;100.00;101218.06;5074058;28;19935;-70
2020/12/25 06:55:20;;;;;;;;;;;;;;;5.22;100.00;101226.03;5083662;28;19925;-69
2020/12/25 06:57:46;;;;;;;;;;;;;;;5.22;100.00;101215.41;5083876;28;19931;-68
2020/12/25 07:00:13;;;;;;;;;;;;;;;5.21;100.00;101228.75;5078830;28;19935;-68
2020/12/25 07:02:40;;;;;;;;;;;;;;;5.20;100.00;101233.19;5079186;28;19931;-69
2020/12/25 07:05:08;;;;;;;;;;;;;;;5.21;100.00;101229.59;5072841;28;20019;-69
2020/12/25 07:07:35;;;;;;;;;;;;;;;5.21;100.00;101231.41;5076602;28;19924;-68
2020/12/25 07:10:06;;;;;;;;;;;;;;;5.21;100.00;101242.88;5078623;28;19928;-68
2020/12/25 07:12:34;;;;;;;;;;;;;;;5.18;100.00;101234.09;5075867;28;19924;-67
2020/12/25 07:15:01;;;;;;;;;;;;;;;5.19;100.00;101241.16;5078415;28;19925;-67
2020/12/25 07:17:28;;;;;;;;;;;;;;;5.17;100.00;101243.84;5074720;28;19951;-67
2020/12/25 07:19:54;;;;;;;;;;;;;;;5.38;100.00;101246.97;5067969;28;19933;-72
2020/12/25 07:22:22;;;;;;;;;;;;;;;5.33;100.00;101251.50;5064875;28;19939;-73
2020/12/25 07:24:48;;;;;;;;;;;;;;;5.20;100.00;101249.09;5070797;28;20479;-72
2020/12/25 07:27:15;;;;;;;;;;;;;;;5.12;100.00;101255.47;5070880;28;19990;-72
2020/12/25 07:29:44;;;;;;;;;;;;;;;4.91;100.00;101257.66;5079383;28;19959;-72
2020/12/25 07:32:12;;;;;;;;;;;;;;;4.77;100.00;101260.56;5066758;28;19931;-72
2020/12/25 07:34:39;;;;;;;;;;;;;;;4.70;100.00;101264.25;5069704;28;19932;-72
2020/12/25 07:37:09;;;;;;;;;;;;;;;4.61;100.00;101261.75;5071833;28;19948;-72
2020/12/25 07:39:36;;;;;;;;;;;;;;;4.53;100.00;101274.28;5075249;28;19964;-72
2020/12/25 07:42:03;;;;;;;;;;;;;;;4.51;100.00;101279.63;5077060;28;19929;-72
2020/12/25 07:44:31;;;;;;;;;;;;;;;4.45;100.00;101284.16;5071258;28;19979;-73
2020/12/25 07:46:59;;;;;;;;;;;;;;;4.40;100.00;101281.59;5067993;28;20294;-76
2020/12/25 07:49:28;;;;;;;;;;;;;;;4.64;100.00;101287.34;5070570;28;19932;-72
2020/12/25 07:51:55;;;;;;;;;;;;;;;4.81;100.00;101278.19;5065596;28;19928;-72
2020/12/25 07:54:23;;;;;;;;;;;;;;;4.84;100.00;101289.66;5068885;28;20401;-75
2020/12/25 07:56:50;;;;;;;;;;;;;;;4.86;100.00;101282.53;5067970;28;20578;-73
2020/12/25 07:59:17;;;;;;;;;;;;;;;4.90;100.00;101276.25;5061576;28;19940;-73
2020/12/25 08:01:45;;;;;;;;;;;;;;;4.93;100.00;101282.38;5059526;28;19929;-73
2020/12/25 08:04:13;;;;;;;;;;;;;;;4.96;100.00;101284.09;5065469;28;20244;-70
2020/12/25 08:06:40;;;;;;;;;;;;;;;4.98;100.00;101285.81;5050443;28;20359;-73
2020/12/25 08:09:10;;;;;;;;;;;;;;;5.03;100.00;101288.38;5067727;28;23251;-73
2020/12/25 08:11:37;;;;;;;;;;;;;;;5.07;100.00;101292.72;5068296;28;19966;-73
2020/12/25 08:14:06;;;;;;;;;;;;;;;5.11;100.00;101296.19;5061961;28;19935;-72
2020/12/25 08:16:36;;;;;;;;;;;;;;;5.13;100.00;101292.63;5059505;28;19935;-73
2020/12/25 08:19:03;;;;;;;;;;;;;;;5.14;100.00;101294.34;5067006;28;19994;-74
2020/12/25 08:21:31;;;;;;;;;;;;;;;5.16;100.00;101289.91;5068933;28;19963;-71
2020/12/25 08:23:58;;;;;;;;;;;;;;;5.20;100.00;101296.91;5071545;28;19924;-76
2020/12/25 08:26:29;;;;;;;;;;;;;;;5.26;100.00;101290.56;5065548;28;19974;-76
2020/12/25 08:28:56;;;;;;;;;;;;;;;5.28;100.00;101289.63;5052408;28;19933;-79
2020/12/25 08:31:23;;;;;;;;;;;;;;;5.36;100.00;101308.06;5063299;28;19925;-76
2020/12/25 08:33:53;;;;;;;;;;;;;;;5.46;100.00;101303.44;5068254;28;20415;-77
2020/12/25 08:36:21;;;;;;;;;;;;;;;5.56;100.00;101315.63;5070141;28;19932;-74
2020/12/25 08:39:06;;;;;;;;;;;;;;;5.74;100.00;101314.38;5072754;28;19943;-74
2020/12/25 08:41:33;;;;;;;;;;;;;;;5.89;100.00;101318.47;5065860;28;19928;-74
2020/12/25 08:44:08;;;;;;;;;;;;;;;6.06;100.00;101324.31;5049322;28;20515;-74
2020/12/25 08:46:38;;;;;;;;;;;;;;;6.21;100.00;101326.59;5073435;28;19924;-75
2020/12/25 08:49:07;;;;;;;;;;;;;;;6.33;100.00;101332.53;5085442;28;19924;-75
2020/12/25 08:51:37;;;;;;;;;;;;;;;6.46;100.00;101326.88;5064641;28;19928;-75
2020/12/25 08:54:06;;;;;;;;;;;;;;;6.58;100.00;101328.34;5073885;28;19933;-76
2020/12/25 08:56:35;;;;;;;;;;;;;;;6.82;100.00;101332.19;5071498;28;20250;-75
2020/12/25 08:59:02;;;;;;;;;;;;;;;7.12;100.00;101326.94;5070156;28;19928;-69
2020/12/25 09:01:30;;;;;;;;;;;;;;;7.91;100.00;101323.75;5073822;28;20582;-72
2020/12/25 09:03:58;;;;;;;;;;;;;;;8.94;100.00;101331.94;5073451;28;20317;-75
2020/12/25 09:06:25;;;;;;;;;;;;;;;9.24;100.00;101326.44;5096232;28;19928;-74
2020/12/25 09:08:52;;;;;;;;;;;;;;;9.41;100.00;101332.00;5068549;28;19929;-73
2020/12/25 09:11:20;;;;;;;;;;;;;;;9.74;100.00;101326.38;5066230;28;19928;-72
2020/12/25 09:13:47;;;;;;;;;;;;;;;9.96;100.00;101327.25;5075218;28;20233;-73
2020/12/25 09:16:14;;;;;;;;;;;;;;;10.19;100.00;101329.03;5072681;28;19928;-73
2020/12/25 09:18:42;;;;;;;;;;;;;;;10.21;100.00;101328.97;5058232;28;19951;-73
2020/12/25 09:21:09;;;;;;;;;;;;;;;10.33;100.00;101331.19;5068166;28;19928;-74
2020/12/25 09:23:36;;;;;;;;;;;;;;;10.35;100.00;101321.28;5070064;28;19929;-73
2020/12/25 09:26:04;;;;;;;;;;;;;;;10.18;100.00;101332.63;5069404;28;19929;-72
2020/12/25 09:28:32;;;;;;;;;;;;;;;10.01;100.00;101330.63;5073947;28;19932;-71
2020/12/25 09:30:59;;;;;;;;;;;;;;;9.95;100.00;101335.34;5074447;28;20464;-72
2020/12/25 09:33:26;;;;;;;;;;;;;;;9.93;100.00;101324.69;5076330;28;19924;-72
2020/12/25 09:35:53;;;;;;;;;;;;;;;9.91;100.00;101328.38;5070293;28;22337;-72
2020/12/25 09:38:20;;;;;;;;;;;;;;;9.83;100.00;101334.88;5069977;28;19928;-72
2020/12/25 09:40:47;;;;;;;;;;;;;;;9.72;100.00;101338.91;5067395;28;19954;-72
2020/12/25 09:43:14;;;;;;;;;;;;;;;9.62;100.00;101328.53;5070961;28;20206;-71
2020/12/25 09:45:42;;;;;;;;;;;;;;;9.71;100.00;101338.03;5073200;28;19928;-71
2020/12/25 09:48:09;;;;;;;;;;;;;;;9.77;100.00;101351.19;5071232;28;19951;-72
2020/12/25 09:50:36;;;;;;;;;;;;;;;9.78;100.00;101360.06;5071561;28;19943;-74
2020/12/25 09:53:03;;;;;;;;;;;;;;;10.00;100.00;101361.00;5066629;28;20034;-74
2020/12/25 09:55:36;;;;;;;;;;;;;;;10.10;100.00;101362.38;5062283;28;19955;-72
2020/12/25 09:58:06;;;;;;;;;;;;;;;10.15;100.00;101353.28;5070180;28;19929;-75
2020/12/25 10:00:33;;;;;;;;;;;;;;;10.14;100.00;101357.78;5097127;28;20364;-75
2020/12/25 10:03:01;;;;;;;;;;;;;;;10.42;100.00;101360.25;5084957;28;20642;-78
2020/12/25 10:05:28;;;;;;;;;;;;;;;10.87;100.00;101353.91;5058531;28;19932;-76
2020/12/25 10:07:55;;;;;;;;;;;;;;;11.48;100.00;101351.22;5039974;28;19958;-76
2020/12/25 10:10:23;;;;;;;;;;;;;;;11.19;100.00;101365.06;5064160;28;21007;-75
2020/12/25 10:12:50;;;;;;;;;;;;;;;10.98;100.00;101367.72;5063928;28;20650;-73
2020/12/25 10:15:21;;;;;;;;;;;;;;;11.16;100.00;101360.69;5062269;28;19928;-74
2020/12/25 10:17:48;;;;;;;;;;;;;;;12.33;100.00;101356.19;5081253;28;19947;-82
2020/12/25 10:23:01;;;;;;;;;;;;;;;15.14;41.02;101424.75;5113024;27;20345;-84
2020/12/25 10:25:28;;;;;;;;;;;;;;;11.98;50.09;101416.06;5093990;28;19967;-85
2020/12/25 10:27:55;;;;;;;;;;;;;;;11.52;51.65;101421.44;5097215;28;19931;-85
2020/12/25 10:30:22;;;;;;;;;;;;;;;11.12;53.19;101420.47;5091924;28;19938;-85
2020/12/25 10:32:49;;;;;;;;;;;;;;;11.13;53.12;101408.94;5085014;28;19936;-87
2020/12/25 10:35:17;;;;;;;;;;;;;;;11.50;52.02;101415.28;5082156;28;19930;-84
2020/12/25 10:37:44;;;;;;;;;;;;;;;11.48;51.99;101416.22;5079240;28;19932;-82
2020/12/25 10:40:28;;;;;;;;;;;;;;;10.87;53.83;101414.72;5086402;28;19932;-86
2020/12/25 10:42:55;;;;;;;;;;;;;;;11.29;52.32;101419.25;5092731;28;20005;-84
2020/12/25 10:45:22;;;;;;;;;;;;;;;11.78;50.66;101410.28;5092541;27;20067;-83
2020/12/25 10:47:48;;;;;;;;;;;;;;;11.46;51.75;101401.25;5094337;28;19953;-87
2020/12/25 10:50:15;;;;;;;;;;;;;;;11.18;52.89;101410.66;5089294;28;19943;-82
2020/12/25 10:52:44;;;;;;;;;;;;;;;12.20;49.49;101412.03;5085181;28;19928;-85
2020/12/25 10:55:11;;;;;;;;;;;;;;;12.28;49.01;101409.22;5092037;28;19936;-86
2020/12/25 10:57:39;;;;;;;;;;;;;;;12.41;48.66;101404.47;5098179;28;19932;-84
2020/12/25 11:00:08;;;;;;;;;;;;;;;13.33;46.03;101389.66;5095664;28;19928;-86
2020/12/25 11:02:35;;;;;;;;;;;;;;;12.80;47.35;101399.06;5089432;28;19946;-84
2020/12/25 11:05:03;;;;;;;;;;;;;;;12.73;47.59;101397.47;5093583;28;19977;-86
2020/12/25 11:07:30;;;;;;;;;;;;;;;12.79;47.72;101392.88;5094017;28;20099;-91
2020/12/25 11:09:57;;;;;;;;;;;;;;;13.39;46.01;101393.03;5091062;28;19924;-84
2020/12/25 11:12:23;;;;;;;;;;;;;;;12.91;47.29;101391.69;5095686;28;19997;-87
2020/12/25 11:14:51;;;;;;;;;;;;;;;12.42;48.90;101392.94;5091468;28;19931;-84
2020/12/25 11:17:18;;;;;;;;;;;;;;;12.15;49.56;101405.09;5080579;28;20005;-84
2020/12/25 11:19:45;;;;;;;;;;;;;;;12.22;49.63;101410.22;5084936;28;20453;-79
2020/12/25 11:22:15;;;;;;;;;;;;;;;12.06;49.92;101403.53;5112874;27;19924;-81
2020/12/25 11:24:47;;;;;;;;;;;;;;;12.70;48.30;101419.69;5112327;27;19930;-90
2020/12/25 11:27:14;;;;;;;;;;;;;;;12.62;48.91;101416.34;5115602;27;19981;-83
2020/12/25 11:29:41;;;;;;;;;;;;;;;12.51;49.26;101410.44;5114755;27;19950;-83
2020/12/25 11:32:09;;;;;;;;;;;;;;;12.60;48.89;101413.72;5102232;27;19931;-84
2020/12/25 11:36:50;;;;;;;;;;;;;;;13.11;49.56;101417.69;5072811;27;19924;-88
2020/12/25 11:39:20;;;;;;;;;;;;;;;13.50;50.77;101418.44;5071405;28;20149;-91
2020/12/25 11:41:49;;;;;;;;;;;;;;;12.92;52.58;101419.09;5074595;28;19929;-89
2020/12/25 11:44:16;;;;;;;;;;;;;;;12.34;54.37;101410.84;5073539;28;19939;-91
2020/12/25 11:46:43;;;;;;;;;;;;;;;12.04;54.67;101418.59;5073810;28;19928;-87
2020/12/25 11:49:16;;;;;;;;;;;;;;;11.78;55.31;101426.19;5117471;28;19931;-94
2020/12/25 11:51:43;;;;;;;;;;;;;;;11.63;55.13;101422.13;5070749;28;19971;-91
2020/12/25 11:54:11;;;;;;;;;;;;;;;11.48;55.58;101421.53;5067569;28;19924;-84
2020/12/25 11:56:39;;;;;;;;;;;;;;;11.41;55.41;101421.69;5066344;28;19932;-88
2020/12/25 11:59:06;;;;;;;;;;;;;;;11.28;55.94;101412.19;5063203;28;19925;-88
2020/12/25 12:01:39;;;;;;;;;;;;;;;11.19;55.72;101413.28;5061552;28;19939;-89
2020/12/25 12:04:14;;;;;;;;;;;;;;;11.13;56.19;101411.59;5078789;28;19924;-94
2020/12/25 12:06:42;;;;;;;;;;;;;;;11.03;56.30;101407.41;5110451;27;19925;-91
2020/12/25 12:09:09;;;;;;;;;;;;;;;10.95;56.30;101407.53;5077072;28;19932;-91
2020/12/25 12:11:41;;;;;;;;;;;;;;;10.85;56.50;101405.06;5063340;28;19928;-89
2020/12/25 12:14:11;;;;;;;;;;;;;;;10.76;56.41;101412.28;5058672;28;19929;-92
2020/12/25 12:16:40;;;;;;;;;;;;;;;10.69;56.32;101408.00;5070328;28;19929;-88
2020/12/25 12:19:35;;;;;;;;;;;;;;;10.66;56.25;101401.88;5063986;28;19932;-93
2020/12/25 12:22:05;;;;;;;;;;;;;;;10.61;56.62;101404.59;5080566;28;19924;-96
2020/12/25 12:24:39;;;;;;;;;;;;;;;10.57;56.46;101406.44;5071193;28;20657;-96
2020/12/25 12:27:07;;;;;;;;;;;;;;;10.58;56.26;101408.16;5082229;28;19955;-91
2020/12/25 12:29:35;;;;;;;;;;;;;;;10.49;57.16;101413.63;5105711;28;19928;-94
2020/12/25 12:32:03;;;;;;;;;;;;;;;10.46;57.10;101419.84;5075478;28;19932;-93
2020/12/25 12:34:30;;;;;;;;;;;;;;;10.39;56.93;101422.63;5104119;27;19928;-95
2020/12/25 12:37:01;;;;;;;;;;;;;;;10.39;56.31;101425.28;5107793;27;19927;-91
2020/12/25 12:39:37;;;;;;;;;;;;;;;10.30;56.91;101420.97;5089394;28;19939;-92
2020/12/25 12:42:04;;;;;;;;;;;;;;;10.27;57.04;101426.31;5083948;28;19936;-90
2020/12/25 12:44:34;;;;;;;;;;;;;;;10.20;56.83;101420.22;5091467;28;19943;-92